Wind From: 10-12-2017 19:04 Until: 11-12-2017 16:00 warning for: Wind Level: Orange info button

Power and phone distribution networks may be disrupted for relatively long periods., Roofs and chimneys can be damaged. , Tree branches may break. , Vehicles can be deported. , Traffic may be disrupted, particularly on secondary roads in forest areas. Limit your trips. , Limit your speed in highway driving, especially if you drive a vehicle or hitch sensitive to wind. , Do not go for walks in forests or along the coast., In town, be vigilant against possible falling objects., Do not work on roofs and do not touch any electrical line fallen on the ground., Store or secure sensitive objects to wind or likely to be damaged., Always install power generators outside buildings. 


Meteo18 Weather Cam more information Meteo18 Weather Cam


Thunder radar more information blitzortung!


Rain radar more information rain snow radar


Visit our other weather sites:

Template documentation
and downloads

And another site



Weather Underground History page Text

Daily Summary for June 17, 2017 Units:  English    Metric   Both
« Previous Day
Next Day »
Daily Weekly Monthly Yearly Custom
  High: Low: Average:
Temperature: 78.4 °F 54.5 °F 67.6 °F
Dew Point: 59.2 °F 50.2 °F 54.9 °F
Humidity: 86 % 47 % 65 %
Wind Speed: 20 mph 0 mph 5.9 mph
Wind Gust: 22 mph - -
Wind:- - East
Pressure: 30.4 in 30.3 in -
Precipitation: 0 in    
Historical Graphs
 
 
Tabular Data for June 17, 2017
Time Temperature Dew Point Pressure Wind Wind Speed Wind Gust Humidity Rainfall Rate (Hourly)
00:02 61 °F 52.7 °F 30.3 in Calm   2 mph 74 % 0 in
00:07 61 °F 52.7 °F 30.3 in NNW 1 mph 2 mph 74 % 0 in
00:12 61.2 °F 52.5 °F 30.3 in Calm   2 mph 73 % 0 in
00:17 61 °F 52.3 °F 30.3 in Calm   2 mph 73 % 0 in
00:22 61 °F 52.7 °F 30.3 in Calm   2 mph 74 % 0 in
00:32 60.8 °F 52.5 °F 30.3 in Calm   1 mph 74 % 0 in
00:37 61 °F 52.7 °F 30.3 in WNW 2 mph 2 mph 74 % 0 in
00:42 61 °F 52.3 °F 30.3 in Calm   2 mph 73 % 0 in
00:47 61 °F 52.3 °F 30.3 in WNW 1 mph 2 mph 73 % 0 in
00:52 60.8 °F 52.5 °F 30.3 in Calm   2 mph 74 % 0 in
00:57 60.6 °F 52.3 °F 30.3 in Calm   2 mph 74 % 0 in
01:02 60.4 °F 52.5 °F 30.3 in Calm   2 mph 75 % 0 in
01:07 60.3 °F 52.3 °F 30.3 in Calm   2 mph 75 % 0 in
01:12 60.1 °F 52.2 °F 30.3 in Calm   1 mph 75 % 0 in
01:17 59.9 °F 52.3 °F 30.3 in NNE 1 mph 2 mph 76 % 0 in
01:22 59.7 °F 52.2 °F 30.3 in Calm   3 mph 76 % 0 in
01:27 59.9 °F 52.3 °F 30.3 in Calm   5 mph 76 % 0 in
01:32 59.7 °F 52.5 °F 30.3 in NNW 1 mph 5 mph 77 % 0 in
01:37 60.1 °F 52.9 °F 30.3 in Calm   5 mph 77 % 0 in
01:42 60.1 °F 52.9 °F 30.3 in Calm   5 mph 77 % 0 in
01:47 60.1 °F 52.9 °F 30.3 in NNE 1 mph 6 mph 77 % 0 in
01:52 60.1 °F 52.9 °F 30.3 in NNW 2 mph 6 mph 77 % 0 in
01:57 60.1 °F 52.9 °F 30.3 in North 3 mph 6 mph 77 % 0 in
02:02 60.1 °F 52.9 °F 30.3 in North 1 mph 6 mph 77 % 0 in
02:07 60.1 °F 52.9 °F 30.3 in NNE 2 mph 7 mph 77 % 0 in
02:12 60.1 °F 52.9 °F 30.3 in NNW 2 mph 9 mph 77 % 0 in
02:17 60.1 °F 53.2 °F 30.3 in NNW 2 mph 9 mph 78 % 0 in
02:22 60.1 °F 52.9 °F 30.3 in Calm   9 mph 77 % 0 in
02:27 59.9 °F 53.1 °F 30.3 in North 1 mph 8 mph 78 % 0 in
02:32 59.7 °F 52.9 °F 30.3 in North 2 mph 8 mph 78 % 0 in
02:37 59.7 °F 52.9 °F 30.3 in NE 2 mph 8 mph 78 % 0 in
02:42 59.7 °F 52.9 °F 30.3 in ENE 3 mph 8 mph 78 % 0 in
02:47 59.5 °F 53.1 °F 30.3 in NE 2 mph 8 mph 79 % 0 in
02:52 59.5 °F 53.1 °F 30.3 in NE 1 mph 6 mph 79 % 0 in
02:57 59.4 °F 52.9 °F 30.3 in Calm   6 mph 79 % 0 in
03:02 59.2 °F 52.7 °F 30.3 in NE 3 mph 5 mph 79 % 0 in
03:07 59.2 °F 53.1 °F 30.3 in NE 4 mph 5 mph 80 % 0 in
03:12 59 °F 52.9 °F 30.3 in NNE 1 mph 6 mph 80 % 0 in
03:17 58.8 °F 52.7 °F 30.3 in NE 1 mph 6 mph 80 % 0 in
03:22 58.8 °F 52.7 °F 30.3 in NNE 2 mph 6 mph 80 % 0 in
03:27 58.6 °F 52.9 °F 30.3 in North 5 mph 6 mph 81 % 0 in
03:32 58.5 °F 52.7 °F 30.3 in North 1 mph 6 mph 81 % 0 in
03:37 58.3 °F 52.5 °F 30.3 in North 1 mph 6 mph 81 % 0 in
03:42 57.9 °F 52.5 °F 30.3 in NNE 3 mph 6 mph 82 % 0 in
03:47 57.7 °F 52.3 °F 30.3 in North 2 mph 5 mph 82 % 0 in
03:52 57.4 °F 52.3 °F 30.3 in North 2 mph 5 mph 83 % 0 in
03:57 57.4 °F 52.3 °F 30.3 in North 1 mph 5 mph 83 % 0 in
04:02 57 °F 52.2 °F 30.3 in NW 1 mph 6 mph 84 % 0 in
04:07 57.2 °F 52.2 °F 30.3 in NNE 4 mph 6 mph 83 % 0 in
04:12 57 °F 52 °F 30.3 in NE 1 mph 6 mph 83 % 0 in
04:17 56.7 °F 51.8 °F 30.3 in NNE 2 mph 4 mph 84 % 0 in
04:22 56.5 °F 51.6 °F 30.3 in NNE 2 mph 4 mph 84 % 0 in
04:27 56.5 °F 52 °F 30.3 in NNE 3 mph 4 mph 85 % 0 in
04:32 56.7 °F 51.8 °F 30.3 in NNW 4 mph 7 mph 84 % 0 in
04:37 56.7 °F 51.8 °F 30.3 in North 3 mph 7 mph 84 % 0 in
04:42 56.7 °F 51.8 °F 30.3 in NNE 1 mph 7 mph 84 % 0 in
04:47 56.5 °F 51.4 °F 30.3 in NE 3 mph 7 mph 83 % 0 in
04:52 56.5 °F 51.6 °F 30.3 in NNW 2 mph 7 mph 84 % 0 in
04:57 56.5 °F 51.6 °F 30.3 in NW 1 mph 6 mph 84 % 0 in
05:02 56.3 °F 51.4 °F 30.3 in NNW 2 mph 6 mph 84 % 0 in
05:12 56.1 °F 51.4 °F 30.3 in NE 1 mph 5 mph 84 % 0 in
05:17 55.9 °F 51.3 °F 30.3 in NNE 2 mph 4 mph 84 % 0 in
05:22 55.8 °F 51.1 °F 30.4 in NE 1 mph 4 mph 84 % 0 in
05:27 55.6 °F 51.1 °F 30.4 in NNW 1 mph 4 mph 85 % 0 in
05:32 55.6 °F 50.9 °F 30.4 in NNE 1 mph 4 mph 84 % 0 in
05:42 55 °F 50.5 °F 30.4 in NE 2 mph 5 mph 85 % 0 in
05:52 54.9 °F 50.4 °F 30.4 in NNE 3 mph 4 mph 85 % 0 in
06:02 54.7 °F 50.2 °F 30.4 in NNE 3 mph 4 mph 85 % 0 in
06:12 54.5 °F 50.4 °F 30.4 in NNE 1 mph 4 mph 86 % 0 in
06:17 54.7 °F 50.5 °F 30.4 in North 2 mph 3 mph 86 % 0 in
06:22 54.5 °F 50.4 °F 30.4 in NNE 2 mph 3 mph 86 % 0 in
06:32 54.7 °F 50.5 °F 30.4 in NE 1 mph 3 mph 86 % 0 in
06:42 55.6 °F 51.1 °F 30.4 in NNE 3 mph 3 mph 85 % 0 in
06:47 55.9 °F 51.3 °F 30.4 in NNW 3 mph 4 mph 84 % 0 in
06:57 56.5 °F 51.4 °F 30.4 in NNE 2 mph 6 mph 83 % 0 in
07:02 56.8 °F 51.8 °F 30.4 in NNE 1 mph 6 mph 83 % 0 in
07:12 57.6 °F 52.2 °F 30.4 in NE 2 mph 6 mph 82 % 0 in
07:17 57.9 °F 52.2 °F 30.4 in NE 2 mph 5 mph 81 % 0 in
07:22 58.3 °F 52.5 °F 30.4 in NNE 1 mph 5 mph 81 % 0 in
07:42 59.7 °F 52.9 °F 30.4 in NNE 2 mph 5 mph 78 % 0 in
07:52 60.1 °F 52.9 °F 30.4 in NE 3 mph 6 mph 77 % 0 in
07:57 60.4 °F 52.9 °F 30.4 in NNE 6 mph 6 mph 76 % 0 in
08:02 60.6 °F 53.1 °F 30.4 in NE 1 mph 6 mph 76 % 0 in
08:12 61.2 °F 52.5 °F 30.4 in NE 4 mph 6 mph 73 % 0 in
08:17 61.7 °F 53.2 °F 30.4 in NE 5 mph 7 mph 74 % 0 in
08:22 61.9 °F 53.1 °F 30.4 in NE 2 mph 7 mph 73 % 0 in
08:32 61.9 °F 52.7 °F 30.4 in NE 4 mph 6 mph 72 % 0 in
08:42 62.1 °F 52.9 °F 30.4 in East 4 mph 11 mph 72 % 0 in
08:47 62.4 °F 53.6 °F 30.4 in ENE 4 mph 11 mph 73 % 0 in
08:52 62.4 °F 53.2 °F 30.4 in ENE 3 mph 11 mph 72 % 0 in
08:57 62.4 °F 53.2 °F 30.4 in East 7 mph 10 mph 72 % 0 in
09:02 62.8 °F 53.6 °F 30.4 in NNE 6 mph 11 mph 72 % 0 in
09:07 62.8 °F 53.2 °F 30.4 in ENE 6 mph 11 mph 71 % 0 in
09:12 63.1 °F 54 °F 30.4 in NE 5 mph 11 mph 72 % 0 in
09:17 63.3 °F 53.4 °F 30.4 in East 4 mph 11 mph 70 % 0 in
09:22 63.7 °F 53.8 °F 30.4 in East 5 mph 11 mph 70 % 0 in
09:32 64.4 °F 52.9 °F 30.4 in ENE 9 mph 10 mph 66 % 0 in
09:42 64.9 °F 52.9 °F 30.4 in ENE 3 mph 12 mph 65 % 0 in
09:52 65.1 °F 52.7 °F 30.4 in ENE 3 mph 13 mph 64 % 0 in
09:57 65.5 °F 52.2 °F 30.4 in NE 5 mph 13 mph 62 % 0 in
10:02 65.7 °F 52.7 °F 30.4 in NE 6 mph 13 mph 63 % 0 in
10:12 66 °F 51.8 °F 30.4 in ENE 8 mph 12 mph 60 % 0 in
10:17 66.4 °F 52.5 °F 30.4 in NE 6 mph 13 mph 61 % 0 in
10:22 66.6 °F 52.2 °F 30.4 in ENE 5 mph 15 mph 60 % 0 in
10:32 67.5 °F 52.7 °F 30.4 in NE 9 mph 15 mph 59 % 0 in
10:42 67.5 °F 52.7 °F 30.4 in ENE 9 mph 14 mph 59 % 0 in
10:47 67.6 °F 52.3 °F 30.4 in East 4 mph 15 mph 58 % 0 in
10:52 68.2 °F 52.9 °F 30.4 in NNE 12 mph 15 mph 58 % 0 in
11:02 68.2 °F 52.9 °F 30.4 in NE 8 mph 12 mph 58 % 0 in
11:12 68.7 °F 52.9 °F 30.4 in NE 10 mph 13 mph 57 % 0 in
11:17 68.7 °F 52.3 °F 30.4 in NE 4 mph 14 mph 56 % 0 in
11:22 68.9 °F 52.5 °F 30.4 in ENE 7 mph 17 mph 56 % 0 in
11:32 69.8 °F 53.4 °F 30.4 in NNE 9 mph 17 mph 56 % 0 in
11:42 69.8 °F 52.9 °F 30.4 in NNE 11 mph 16 mph 55 % 0 in
11:47 69.4 °F 52.2 °F 30.4 in ENE 12 mph 17 mph 54 % 0 in
11:52 70 °F 53.1 °F 30.4 in NNW 4 mph 17 mph 55 % 0 in
12:02 70.7 °F 52.7 °F 30.4 in ENE 8 mph 17 mph 53 % 0 in
12:12 71.2 °F 53.2 °F 30.4 in NNE 6 mph 17 mph 53 % 0 in
12:17 71.4 °F 52.9 °F 30.4 in NE 9 mph 15 mph 52 % 0 in
12:22 71.8 °F 53.2 °F 30.4 in ENE 8 mph 15 mph 52 % 0 in
12:32 72 °F 53.4 °F 30.4 in North 10 mph 15 mph 52 % 0 in
12:42 72.3 °F 54.1 °F 30.4 in North 5 mph 14 mph 53 % 0 in
12:52 72.3 °F 53.2 °F 30.3 in NE 4 mph 16 mph 51 % 0 in
12:57 72.7 °F 53.4 °F 30.4 in East 8 mph 16 mph 51 % 0 in
13:02 73.2 °F 54 °F 30.4 in North 8 mph 14 mph 51 % 0 in
13:07 73.2 °F 53.4 °F 30.3 in NNW 8 mph 14 mph 50 % 0 in
13:12 72.7 °F 52.9 °F 30.3 in ENE 10 mph 19 mph 50 % 0 in
13:17 72.7 °F 52.9 °F 30.3 in NE 2 mph 19 mph 50 % 0 in
13:22 72.9 °F 53.1 °F 30.3 in NE 5 mph 19 mph 50 % 0 in
13:32 73.8 °F 53.4 °F 30.3 in NNW 3 mph 19 mph 49 % 0 in
13:37 74.1 °F 52.5 °F 30.3 in NE 9 mph 19 mph 47 % 0 in
13:42 73.9 °F 53.1 °F 30.3 in NNE 13 mph 15 mph 48 % 0 in
13:47 74.1 °F 53.2 °F 30.3 in NNE 7 mph 16 mph 48 % 0 in
13:52 74.1 °F 53.8 °F 30.3 in NE 10 mph 16 mph 49 % 0 in
13:57 74.7 °F 53.6 °F 30.3 in ENE 4 mph 16 mph 48 % 0 in
14:02 75 °F 53.4 °F 30.3 in NE 12 mph 16 mph 47 % 0 in
14:07 75 °F 54 °F 30.3 in NNE 6 mph 16 mph 48 % 0 in
14:12 75.6 °F 55 °F 30.3 in NE 6 mph 17 mph 49 % 0 in
14:17 75.9 °F 54.3 °F 30.3 in NE 15 mph 17 mph 47 % 0 in
14:22 75.6 °F 55 °F 30.3 in NE 10 mph 22 mph 49 % 0 in
14:27 75.4 °F 54.9 °F 30.3 in ENE 13 mph 22 mph 49 % 0 in
14:32 75.7 °F 55.8 °F 30.3 in North 14 mph 17 mph 50 % 0 in
14:37 75.9 °F 55.9 °F 30.3 in NNW 8 mph 17 mph 50 % 0 in
14:42 76.1 °F 55.6 °F 30.3 in NE 10 mph 17 mph 49 % 0 in
14:47 75.9 °F 56.5 °F 30.3 in NE 9 mph 17 mph 51 % 0 in
14:52 76.3 °F 56.8 °F 30.3 in ENE 9 mph 16 mph 51 % 0 in
14:57 76.8 °F 57.4 °F 30.3 in East 7 mph 17 mph 51 % 0 in
15:02 76.6 °F 57.2 °F 30.3 in NE 9 mph 17 mph 51 % 0 in
15:07 76.8 °F 56.8 °F 30.3 in ENE 7 mph 17 mph 50 % 0 in
15:12 77.2 °F 57.7 °F 30.3 in NNE 9 mph 17 mph 51 % 0 in
15:22 76.8 °F 56.8 °F 30.3 in ENE 9 mph 18 mph 50 % 0 in
15:27 76.8 °F 57.9 °F 30.3 in East 6 mph 18 mph 52 % 0 in
15:32 77.2 °F 57.7 °F 30.3 in ENE 13 mph 17 mph 51 % 0 in
15:37 77.2 °F 57.7 °F 30.3 in NNW 9 mph 17 mph 51 % 0 in
15:42 76.8 °F 57.4 °F 30.3 in NE 7 mph 22 mph 51 % 0 in
15:47 77 °F 57.6 °F 30.3 in NE 7 mph 22 mph 51 % 0 in
15:52 77.4 °F 57.2 °F 30.3 in ENE 16 mph 22 mph 50 % 0 in
15:57 77.2 °F 57.7 °F 30.3 in NE 11 mph 20 mph 51 % 0 in
16:02 77.5 °F 57.9 °F 30.3 in ENE 14 mph 21 mph 51 % 0 in
16:07 77.4 °F 57.7 °F 30.3 in ENE 11 mph 21 mph 51 % 0 in
16:12 77.4 °F 57.7 °F 30.3 in NE 10 mph 21 mph 51 % 0 in
16:17 77.2 °F 57.7 °F 30.3 in NE 7 mph 20 mph 51 % 0 in
16:22 77.5 °F 58.5 °F 30.3 in ENE 10 mph 20 mph 52 % 0 in
16:27 78.4 °F 58.8 °F 30.3 in ENE 11 mph 20 mph 51 % 0 in
16:32 78.4 °F 57.7 °F 30.3 in ENE 14 mph 16 mph 49 % 0 in
16:37 77.7 °F 57.6 °F 30.3 in East 10 mph 19 mph 50 % 0 in
16:42 77.7 °F 57.6 °F 30.3 in ENE 11 mph 19 mph 50 % 0 in
16:47 77.9 °F 57.7 °F 30.3 in ENE 16 mph 21 mph 50 % 0 in
16:52 78.3 °F 58.6 °F 30.3 in NNE 10 mph 21 mph 51 % 0 in
16:57 77.9 °F 58.3 °F 30.3 in North 9 mph 22 mph 51 % 0 in
17:02 77.7 °F 58.1 °F 30.3 in North 7 mph 22 mph 51 % 0 in
17:07 77.7 °F 57.6 °F 30.3 in NNW 6 mph 22 mph 50 % 0 in
17:12 77.5 °F 57.9 °F 30.3 in NE 9 mph 20 mph 51 % 0 in
17:17 77.7 °F 58.1 °F 30.3 in NE 6 mph 19 mph 51 % 0 in
17:22 77.7 °F 58.1 °F 30.3 in NE 9 mph 19 mph 51 % 0 in
17:27 77.7 °F 57.6 °F 30.3 in NE 6 mph 20 mph 50 % 0 in
17:32 77.5 °F 58.5 °F 30.3 in NE 13 mph 20 mph 52 % 0 in
17:37 77.5 °F 57.9 °F 30.3 in NNE 9 mph 19 mph 51 % 0 in
17:42 77.5 °F 58.5 °F 30.3 in NE 12 mph 18 mph 52 % 0 in
17:47 77.4 °F 58.3 °F 30.3 in NE 9 mph 21 mph 52 % 0 in
17:52 77.4 °F 58.8 °F 30.3 in NNW 8 mph 21 mph 53 % 0 in
17:57 77.7 °F 58.1 °F 30.3 in NE 20 mph 21 mph 51 % 0 in
18:02 77.7 °F 58.1 °F 30.3 in NNE 14 mph 20 mph 51 % 0 in
18:07 77.7 °F 58.6 °F 30.3 in NNE 6 mph 20 mph 52 % 0 in
18:12 77.7 °F 58.1 °F 30.3 in NNE 10 mph 20 mph 51 % 0 in
18:17 77.9 °F 58.8 °F 30.3 in NE 13 mph 20 mph 52 % 0 in
18:22 77.5 °F 57.9 °F 30.3 in NE 13 mph 18 mph 51 % 0 in
18:32 77.4 °F 58.8 °F 30.3 in NNE 9 mph 18 mph 53 % 0 in
18:42 77.7 °F 59.2 °F 30.3 in NNE 11 mph 18 mph 53 % 0 in
18:52 77.2 °F 58.3 °F 30.3 in ENE 7 mph 18 mph 52 % 0 in
18:57 76.8 °F 57.9 °F 30.3 in NE 8 mph 21 mph 52 % 0 in
19:02 76.8 °F 58.5 °F 30.3 in North 9 mph 21 mph 53 % 0 in
19:07 76.8 °F 58.5 °F 30.3 in ENE 9 mph 19 mph 53 % 0 in
19:12 76.8 °F 57.9 °F 30.3 in ENE 10 mph 18 mph 52 % 0 in
19:17 76.5 °F 58.1 °F 30.3 in NE 9 mph 18 mph 53 % 0 in
19:22 76.5 °F 58.1 °F 30.3 in NNE 7 mph 17 mph 53 % 0 in
19:32 76.3 °F 58.5 °F 30.3 in NE 8 mph 20 mph 54 % 0 in
19:42 75.7 °F 57.4 °F 30.3 in ENE 7 mph 20 mph 53 % 0 in
19:47 75.7 °F 57.9 °F 30.3 in NE 11 mph 20 mph 54 % 0 in
19:52 75.6 °F 57.7 °F 30.3 in NE 9 mph 20 mph 54 % 0 in
19:57 75.4 °F 58.1 °F 30.3 in West 6 mph 21 mph 55 % 0 in
20:02 75.2 °F 57.9 °F 30.3 in NE 14 mph 21 mph 55 % 0 in
20:12 75.2 °F 58.5 °F 30.3 in NNE 8 mph 15 mph 56 % 0 in
20:17 74.8 °F 58.1 °F 30.3 in NE 15 mph 15 mph 56 % 0 in
20:22 74.8 °F 58.1 °F 30.3 in NE 7 mph 17 mph 56 % 0 in
20:27 74.7 °F 57.9 °F 30.3 in NNE 8 mph 17 mph 56 % 0 in
20:32 74.5 °F 57.7 °F 30.3 in NE 7 mph 16 mph 56 % 0 in
20:37 74.3 °F 57.6 °F 30.3 in NE 10 mph 17 mph 56 % 0 in
20:42 74.1 °F 57.9 °F 30.3 in NE 11 mph 17 mph 57 % 0 in
20:52 73.8 °F 58.1 °F 30.3 in ENE 7 mph 17 mph 58 % 0 in
20:57 73.6 °F 57.9 °F 30.3 in ENE 9 mph 16 mph 58 % 0 in
21:02 73.2 °F 58.1 °F 30.3 in NE 4 mph 15 mph 59 % 0 in
21:07 73 °F 57.9 °F 30.3 in NE 6 mph 13 mph 59 % 0 in
21:12 72.9 °F 57.7 °F 30.3 in NE 10 mph 12 mph 59 % 0 in
21:17 72.7 °F 57.9 °F 30.3 in NE 7 mph 13 mph 60 % 0 in
21:22 72.3 °F 57.7 °F 30.3 in NNE 8 mph 14 mph 60 % 0 in
21:27 72.1 °F 57.9 °F 30.3 in NNE 6 mph 14 mph 61 % 0 in
21:32 72 °F 58.3 °F 30.3 in NNE 7 mph 14 mph 62 % 0 in
21:37 71.8 °F 58.1 °F 30.3 in NNE 6 mph 13 mph 62 % 0 in
21:42 71.2 °F 57.9 °F 30.3 in ENE 5 mph 12 mph 63 % 0 in
21:52 70.3 °F 58.1 °F 30.3 in NNE 7 mph 10 mph 65 % 0 in
21:57 70.5 °F 58.1 °F 30.3 in NE 5 mph 14 mph 65 % 0 in
22:02 70.3 °F 58.1 °F 30.3 in North 3 mph 14 mph 65 % 0 in
22:12 70.2 °F 58.3 °F 30.3 in NE 9 mph 13 mph 66 % 0 in
22:17 70 °F 58.1 °F 30.3 in NE 7 mph 13 mph 66 % 0 in
22:22 69.6 °F 58.1 °F 30.3 in NE 8 mph 16 mph 67 % 0 in
22:27 69.6 °F 58.1 °F 30.3 in NNE 5 mph 16 mph 67 % 0 in
22:32 69.4 °F 57.9 °F 30.3 in ENE 10 mph 16 mph 67 % 0 in
22:37 69.4 °F 57.9 °F 30.3 in NE 6 mph 15 mph 67 % 0 in
22:42 69.3 °F 57.9 °F 30.3 in North 4 mph 15 mph 67 % 0 in
22:47 69.3 °F 57.9 °F 30.3 in NE 9 mph 14 mph 67 % 0 in
22:52 69.3 °F 58.3 °F 30.3 in NE 8 mph 14 mph 68 % 0 in
22:57 69.1 °F 58.1 °F 30.3 in NE 10 mph 14 mph 68 % 0 in
23:02 68.7 °F 57.7 °F 30.3 in NE 5 mph 13 mph 68 % 0 in
23:07 68.5 °F 57.9 °F 30.3 in NNE 11 mph 13 mph 69 % 0 in
23:12 68.4 °F 57.7 °F 30.3 in NNE 7 mph 12 mph 69 % 0 in
23:17 68.2 °F 58.1 °F 30.3 in NE 4 mph 12 mph 70 % 0 in
23:22 68.2 °F 58.1 °F 30.3 in NE 5 mph 12 mph 70 % 0 in
23:27 68 °F 57.9 °F 30.3 in NE 7 mph 13 mph 70 % 0 in
23:32 67.8 °F 57.7 °F 30.3 in NE 10 mph 13 mph 70 % 0 in
23:42 67.6 °F 57.9 °F 30.3 in NE 7 mph 12 mph 71 % 0 in
23:47 67.5 °F 57.7 °F 30.3 in NE 6 mph 12 mph 71 % 0 in
23:52 67.3 °F 57.9 °F 30.3 in NNE 7 mph 12 mph 72 % 0 in
23:57 66.9 °F 57.6 °F 30.3 in NNE 8 mph 12 mph 72 % 0 in
Meteo18
Compliments of Weather Underground - 4 mb

Script developed by  Jim McMurry - jmcmurry@mwt.net Adapted for the template by  Wim van der Kuil - Leuven-Template.eu

You find our weather info also at:

European Weather Network

Weather Underground

Equipment we use:

Weather-station
Davis Vue

Weather-program
Meteohub

Weather-server
Raspberry PI 2 B+

Provider
1 and 1

Davis Vue

Meteohub

Raspberry PI 2 B+

1 and 1